Batavia, Illinois
Current Conditions -  °F | °C
As of 2:03 AM on Wednesday 22 Oct 2014 (Local Time) from KDPA Reporting Station
Broken Clouds Broken Clouds  
Wind Chill: 40°   Ceiling: 2900
Heat Index: 40°   Visibility: 10mi
Dew Point: 36°   Wind: 0mph
Humidity: 86%   Direction: NA
Pressure: 30.27"   Gusts: NA
Location:  41.85°N, 88.31°W
Report Text: KDPA 220703Z 00000KT 10SM BKN029 04/02 A3027 RMK AO2 T00440022
Loading
Personal Weather Stations






























Interactive Weather Map
Tropical Storm Tracking
New forecast layout! Learn more

10-Day Weather Forecast

Advertisements
Track Severe Weather on mobile